sensor_id;sensor_type;location;lat;lon;timestamp;P1;durP1;ratioP1;P2;durP2;ratioP2
64487;SDS011;50864;45.050;39.014;2022-09-27T00:00:24;10.63;;;4.47;;
64487;SDS011;50864;45.050;39.014;2022-09-27T00:02:51;9.25;;;4.40;;
64487;SDS011;50864;45.050;39.014;2022-09-27T00:05:17;9.93;;;4.22;;
64487;SDS011;50864;45.050;39.014;2022-09-27T00:07:43;7.28;;;3.95;;
64487;SDS011;50864;45.050;39.014;2022-09-27T00:10:10;9.25;;;4.10;;
64487;SDS011;50864;45.050;39.014;2022-09-27T00:12:37;7.50;;;4.32;;
64487;SDS011;50864;45.050;39.014;2022-09-27T00:15:03;6.75;;;3.90;;
64487;SDS011;50864;45.050;39.014;2022-09-27T00:17:31;7.55;;;4.10;;
64487;SDS011;50864;45.050;39.014;2022-09-27T00:19:58;9.80;;;3.67;;
64487;SDS011;50864;45.050;39.014;2022-09-27T00:22:24;7.10;;;3.72;;
64487;SDS011;50864;45.050;39.014;2022-09-27T00:24:51;7.75;;;3.42;;
64487;SDS011;50864;45.050;39.014;2022-09-27T00:27:17;9.20;;;3.28;;
64487;SDS011;50864;45.050;39.014;2022-09-27T00:29:44;8.10;;;3.55;;
64487;SDS011;50864;45.050;39.014;2022-09-27T00:32:11;5.53;;;3.40;;
64487;SDS011;50864;45.050;39.014;2022-09-27T00:34:38;9.15;;;3.62;;
64487;SDS011;50864;45.050;39.014;2022-09-27T00:37:05;6.65;;;3.53;;
64487;SDS011;50864;45.050;39.014;2022-09-27T00:39:31;8.65;;;3.70;;
64487;SDS011;50864;45.050;39.014;2022-09-27T00:41:57;12.75;;;3.78;;
64487;SDS011;50864;45.050;39.014;2022-09-27T00:46:59;6.80;;;3.95;;
64487;SDS011;50864;45.050;39.014;2022-09-27T00:49:32;7.35;;;3.30;;
64487;SDS011;50864;45.050;39.014;2022-09-27T00:52:13;7.70;;;4.03;;
64487;SDS011;50864;45.050;39.014;2022-09-27T00:55:06;6.53;;;3.85;;
64487;SDS011;50864;45.050;39.014;2022-09-27T00:57:40;7.75;;;4.03;;
64487;SDS011;50864;45.050;39.014;2022-09-27T01:00:09;10.82;;;4.07;;
64487;SDS011;50864;45.050;39.014;2022-09-27T01:02:37;9.07;;;4.10;;
64487;SDS011;50864;45.050;39.014;2022-09-27T01:05:06;6.97;;;3.97;;
64487;SDS011;50864;45.050;39.014;2022-09-27T01:07:34;7.82;;;4.32;;
64487;SDS011;50864;45.050;39.014;2022-09-27T01:10:00;7.95;;;4.05;;
64487;SDS011;50864;45.050;39.014;2022-09-27T01:15:22;11.02;;;4.43;;
64487;SDS011;50864;45.050;39.014;2022-09-27T01:35:21;9.57;;;4.80;;
64487;SDS011;50864;45.050;39.014;2022-09-27T01:43:16;8.20;;;4.30;;
64487;SDS011;50864;45.050;39.014;2022-09-27T01:45:53;7.80;;;4.18;;
64487;SDS011;50864;45.050;39.014;2022-09-27T01:48:27;8.98;;;4.07;;
64487;SDS011;50864;45.050;39.014;2022-09-27T01:51:06;8.88;;;4.60;;
64487;SDS011;50864;45.050;39.014;2022-09-27T01:53:36;9.57;;;4.35;;
64487;SDS011;50864;45.050;39.014;2022-09-27T01:56:17;8.43;;;4.35;;
64487;SDS011;50864;45.050;39.014;2022-09-27T01:58:51;7.57;;;4.45;;
64487;SDS011;50864;45.050;39.014;2022-09-27T02:01:22;7.30;;;4.50;;
64487;SDS011;50864;45.050;39.014;2022-09-27T02:03:53;7.18;;;4.37;;
64487;SDS011;50864;45.050;39.014;2022-09-27T02:06:25;6.85;;;4.28;;
64487;SDS011;50864;45.050;39.014;2022-09-27T02:08:59;7.62;;;4.30;;
64487;SDS011;50864;45.050;39.014;2022-09-27T02:11:34;11.93;;;4.55;;
64487;SDS011;50864;45.050;39.014;2022-09-27T02:24:41;8.57;;;4.20;;
64487;SDS011;50864;45.050;39.014;2022-09-27T02:30:00;9.52;;;4.25;;
64487;SDS011;50864;45.050;39.014;2022-09-27T02:32:32;8.68;;;4.10;;
64487;SDS011;50864;45.050;39.014;2022-09-27T02:35:02;8.48;;;3.78;;
64487;SDS011;50864;45.050;39.014;2022-09-27T02:37:32;11.50;;;4.20;;
64487;SDS011;50864;45.050;39.014;2022-09-27T02:39:59;8.80;;;3.60;;
64487;SDS011;50864;45.050;39.014;2022-09-27T02:42:25;8.95;;;3.50;;
64487;SDS011;50864;45.050;39.014;2022-09-27T02:44:52;10.00;;;3.72;;
64487;SDS011;50864;45.050;39.014;2022-09-27T02:50:36;9.30;;;4.20;;
64487;SDS011;50864;45.050;39.014;2022-09-27T02:59:28;12.90;;;4.43;;
64487;SDS011;50864;45.050;39.014;2022-09-27T03:05:19;11.00;;;3.60;;
64487;SDS011;50864;45.050;39.014;2022-09-27T03:07:48;16.45;;;4.00;;
64487;SDS011;50864;45.050;39.014;2022-09-27T03:10:18;10.45;;;3.80;;
64487;SDS011;50864;45.050;39.014;2022-09-27T03:12:53;7.72;;;3.60;;
64487;SDS011;50864;45.050;39.014;2022-09-27T03:15:21;8.45;;;3.75;;
64487;SDS011;50864;45.050;39.014;2022-09-27T03:17:50;8.10;;;3.53;;
64487;SDS011;50864;45.050;39.014;2022-09-27T03:20:19;9.60;;;3.97;;
64487;SDS011;50864;45.050;39.014;2022-09-27T03:22:45;9.20;;;3.70;;
64487;SDS011;50864;45.050;39.014;2022-09-27T03:25:12;12.30;;;3.58;;
64487;SDS011;50864;45.050;39.014;2022-09-27T03:27:38;7.78;;;3.45;;
64487;SDS011;50864;45.050;39.014;2022-09-27T03:30:04;13.62;;;4.00;;
64487;SDS011;50864;45.050;39.014;2022-09-27T03:32:32;8.63;;;3.15;;
64487;SDS011;50864;45.050;39.014;2022-09-27T03:35:00;13.00;;;4.05;;
64487;SDS011;50864;45.050;39.014;2022-09-27T03:37:26;6.55;;;3.30;;
64487;SDS011;50864;45.050;39.014;2022-09-27T03:39:54;9.98;;;3.37;;
64487;SDS011;50864;45.050;39.014;2022-09-27T03:42:20;7.03;;;3.20;;
64487;SDS011;50864;45.050;39.014;2022-09-27T03:44:47;7.05;;;3.20;;
64487;SDS011;50864;45.050;39.014;2022-09-27T03:47:13;7.68;;;3.35;;
64487;SDS011;50864;45.050;39.014;2022-09-27T03:49:39;8.95;;;3.65;;
64487;SDS011;50864;45.050;39.014;2022-09-27T03:52:05;6.43;;;3.50;;
64487;SDS011;50864;45.050;39.014;2022-09-27T03:54:31;6.60;;;3.28;;
64487;SDS011;50864;45.050;39.014;2022-09-27T03:56:57;8.25;;;3.35;;
64487;SDS011;50864;45.050;39.014;2022-09-27T03:59:24;8.68;;;2.95;;
64487;SDS011;50864;45.050;39.014;2022-09-27T04:01:57;11.88;;;3.33;;
64487;SDS011;50864;45.050;39.014;2022-09-27T04:04:28;8.48;;;3.28;;
64487;SDS011;50864;45.050;39.014;2022-09-27T04:06:54;6.53;;;3.10;;
64487;SDS011;50864;45.050;39.014;2022-09-27T04:09:20;11.38;;;3.22;;
64487;SDS011;50864;45.050;39.014;2022-09-27T04:11:52;7.12;;;2.90;;
64487;SDS011;50864;45.050;39.014;2022-09-27T04:14:19;9.73;;;3.37;;
64487;SDS011;50864;45.050;39.014;2022-09-27T04:16:48;6.72;;;3.03;;
64487;SDS011;50864;45.050;39.014;2022-09-27T04:19:15;9.70;;;3.03;;
64487;SDS011;50864;45.050;39.014;2022-09-27T04:21:41;10.45;;;3.03;;
64487;SDS011;50864;45.050;39.014;2022-09-27T04:24:08;9.18;;;3.42;;
64487;SDS011;50864;45.050;39.014;2022-09-27T04:26:37;11.57;;;3.17;;
64487;SDS011;50864;45.050;39.014;2022-09-27T04:29:04;8.32;;;2.95;;
64487;SDS011;50864;45.050;39.014;2022-09-27T04:31:31;12.45;;;3.40;;
64487;SDS011;50864;45.050;39.014;2022-09-27T04:34:00;7.65;;;3.42;;
64487;SDS011;50864;45.050;39.014;2022-09-27T04:36:26;14.20;;;3.55;;
64487;SDS011;50864;45.050;39.014;2022-09-27T04:38:53;12.15;;;3.65;;
64487;SDS011;50864;45.050;39.014;2022-09-27T04:41:21;11.63;;;3.37;;
64487;SDS011;50864;45.050;39.014;2022-09-27T04:43:48;10.35;;;3.60;;
64487;SDS011;50864;45.050;39.014;2022-09-27T04:46:15;20.05;;;3.30;;
64487;SDS011;50864;45.050;39.014;2022-09-27T04:48:42;10.95;;;3.95;;
64487;SDS011;50864;45.050;39.014;2022-09-27T04:51:09;12.95;;;4.25;;
64487;SDS011;50864;45.050;39.014;2022-09-27T04:53:35;11.40;;;3.87;;
64487;SDS011;50864;45.050;39.014;2022-09-27T04:56:02;8.52;;;3.30;;
64487;SDS011;50864;45.050;39.014;2022-09-27T04:58:30;8.82;;;3.65;;
64487;SDS011;50864;45.050;39.014;2022-09-27T05:00:58;9.48;;;3.28;;
64487;SDS011;50864;45.050;39.014;2022-09-27T05:03:28;11.50;;;4.50;;
64487;SDS011;50864;45.050;39.014;2022-09-27T05:05:55;14.68;;;4.05;;
64487;SDS011;50864;45.050;39.014;2022-09-27T05:08:21;12.30;;;4.10;;
64487;SDS011;50864;45.050;39.014;2022-09-27T05:10:53;11.55;;;4.30;;
64487;SDS011;50864;45.050;39.014;2022-09-27T05:13:20;8.23;;;3.37;;
64487;SDS011;50864;45.050;39.014;2022-09-27T05:15:46;8.02;;;3.03;;
64487;SDS011;50864;45.050;39.014;2022-09-27T05:18:14;13.98;;;3.35;;
64487;SDS011;50864;45.050;39.014;2022-09-27T05:20:44;10.93;;;4.35;;
64487;SDS011;50864;45.050;39.014;2022-09-27T05:23:11;5.57;;;3.03;;
64487;SDS011;50864;45.050;39.014;2022-09-27T05:25:37;9.25;;;3.75;;
64487;SDS011;50864;45.050;39.014;2022-09-27T05:28:03;11.48;;;3.78;;
64487;SDS011;50864;45.050;39.014;2022-09-27T05:30:30;24.15;;;5.25;;
64487;SDS011;50864;45.050;39.014;2022-09-27T05:33:01;25.40;;;5.82;;
64487;SDS011;50864;45.050;39.014;2022-09-27T05:35:32;13.27;;;3.60;;
64487;SDS011;50864;45.050;39.014;2022-09-27T05:38:00;12.48;;;3.83;;
64487;SDS011;50864;45.050;39.014;2022-09-27T05:40:27;11.10;;;3.80;;
64487;SDS011;50864;45.050;39.014;2022-09-27T05:42:54;13.05;;;3.90;;
64487;SDS011;50864;45.050;39.014;2022-09-27T05:45:21;14.40;;;4.95;;
64487;SDS011;50864;45.050;39.014;2022-09-27T05:47:52;9.35;;;4.22;;
64487;SDS011;50864;45.050;39.014;2022-09-27T05:50:19;8.38;;;3.90;;
64487;SDS011;50864;45.050;39.014;2022-09-27T05:52:46;10.20;;;3.72;;
64487;SDS011;50864;45.050;39.014;2022-09-27T05:55:14;18.00;;;4.43;;
64487;SDS011;50864;45.050;39.014;2022-09-27T05:57:40;30.55;;;5.50;;
64487;SDS011;50864;45.050;39.014;2022-09-27T06:00:07;13.45;;;3.87;;
64487;SDS011;50864;45.050;39.014;2022-09-27T06:02:43;10.10;;;3.45;;
64487;SDS011;50864;45.050;39.014;2022-09-27T06:05:12;10.80;;;3.60;;
64487;SDS011;50864;45.050;39.014;2022-09-27T06:07:42;10.90;;;3.35;;
64487;SDS011;50864;45.050;39.014;2022-09-27T06:10:08;10.50;;;3.62;;
64487;SDS011;50864;45.050;39.014;2022-09-27T06:12:34;9.88;;;3.40;;
64487;SDS011;50864;45.050;39.014;2022-09-27T06:15:01;8.00;;;3.45;;
64487;SDS011;50864;45.050;39.014;2022-09-27T06:17:28;9.50;;;3.70;;
64487;SDS011;50864;45.050;39.014;2022-09-27T06:19:54;13.07;;;3.58;;
64487;SDS011;50864;45.050;39.014;2022-09-27T06:22:22;13.93;;;3.45;;
64487;SDS011;50864;45.050;39.014;2022-09-27T06:24:49;14.85;;;3.80;;
64487;SDS011;50864;45.050;39.014;2022-09-27T06:27:18;10.15;;;3.47;;
64487;SDS011;50864;45.050;39.014;2022-09-27T06:29:45;13.73;;;4.45;;
64487;SDS011;50864;45.050;39.014;2022-09-27T06:32:13;11.95;;;3.47;;
64487;SDS011;50864;45.050;39.014;2022-09-27T06:34:39;10.35;;;3.70;;
64487;SDS011;50864;45.050;39.014;2022-09-27T06:37:06;10.00;;;3.40;;
64487;SDS011;50864;45.050;39.014;2022-09-27T06:39:32;8.18;;;3.30;;
64487;SDS011;50864;45.050;39.014;2022-09-27T06:42:00;13.25;;;3.22;;
64487;SDS011;50864;45.050;39.014;2022-09-27T06:44:26;13.77;;;4.07;;
64487;SDS011;50864;45.050;39.014;2022-09-27T06:46:53;7.43;;;3.17;;
64487;SDS011;50864;45.050;39.014;2022-09-27T06:49:20;8.65;;;3.47;;
64487;SDS011;50864;45.050;39.014;2022-09-27T06:51:50;12.10;;;2.80;;
64487;SDS011;50864;45.050;39.014;2022-09-27T06:54:17;12.55;;;3.08;;
64487;SDS011;50864;45.050;39.014;2022-09-27T06:56:47;6.47;;;2.40;;
64487;SDS011;50864;45.050;39.014;2022-09-27T06:59:13;7.03;;;3.03;;
64487;SDS011;50864;45.050;39.014;2022-09-27T07:02:01;7.12;;;2.97;;
64487;SDS011;50864;45.050;39.014;2022-09-27T07:04:30;7.97;;;3.10;;
64487;SDS011;50864;45.050;39.014;2022-09-27T07:06:58;9.95;;;2.65;;
64487;SDS011;50864;45.050;39.014;2022-09-27T07:09:24;10.27;;;2.40;;
64487;SDS011;50864;45.050;39.014;2022-09-27T07:11:50;10.57;;;2.58;;
64487;SDS011;50864;45.050;39.014;2022-09-27T07:14:16;7.43;;;2.40;;
64487;SDS011;50864;45.050;39.014;2022-09-27T07:16:43;8.15;;;2.50;;
64487;SDS011;50864;45.050;39.014;2022-09-27T07:19:10;9.38;;;2.70;;
64487;SDS011;50864;45.050;39.014;2022-09-27T07:21:39;6.90;;;2.28;;
64487;SDS011;50864;45.050;39.014;2022-09-27T07:24:05;5.07;;;2.25;;
64487;SDS011;50864;45.050;39.014;2022-09-27T07:26:31;6.60;;;2.53;;
64487;SDS011;50864;45.050;39.014;2022-09-27T07:28:58;7.50;;;2.42;;
64487;SDS011;50864;45.050;39.014;2022-09-27T07:31:24;7.50;;;2.60;;
64487;SDS011;50864;45.050;39.014;2022-09-27T07:33:53;9.60;;;2.40;;
64487;SDS011;50864;45.050;39.014;2022-09-27T07:36:20;9.75;;;2.83;;
64487;SDS011;50864;45.050;39.014;2022-09-27T07:38:46;8.43;;;2.70;;
64487;SDS011;50864;45.050;39.014;2022-09-27T07:41:13;10.68;;;2.90;;
64487;SDS011;50864;45.050;39.014;2022-09-27T07:43:40;12.43;;;3.28;;
64487;SDS011;50864;45.050;39.014;2022-09-27T07:46:08;9.25;;;2.60;;
64487;SDS011;50864;45.050;39.014;2022-09-27T07:48:35;7.70;;;2.45;;
64487;SDS011;50864;45.050;39.014;2022-09-27T07:51:01;9.43;;;2.92;;
64487;SDS011;50864;45.050;39.014;2022-09-27T07:53:32;7.03;;;2.22;;
64487;SDS011;50864;45.050;39.014;2022-09-27T07:55:59;5.80;;;2.40;;
64487;SDS011;50864;45.050;39.014;2022-09-27T07:58:25;7.50;;;2.03;;
64487;SDS011;50864;45.050;39.014;2022-09-27T08:00:53;6.37;;;2.00;;
64487;SDS011;50864;45.050;39.014;2022-09-27T08:03:21;11.30;;;2.22;;
64487;SDS011;50864;45.050;39.014;2022-09-27T08:05:47;7.30;;;2.30;;
64487;SDS011;50864;45.050;39.014;2022-09-27T08:08:14;10.93;;;2.40;;
64487;SDS011;50864;45.050;39.014;2022-09-27T08:10:41;9.70;;;2.65;;
64487;SDS011;50864;45.050;39.014;2022-09-27T08:13:12;7.90;;;2.58;;
64487;SDS011;50864;45.050;39.014;2022-09-27T08:15:39;12.15;;;2.40;;
64487;SDS011;50864;45.050;39.014;2022-09-27T08:18:06;6.47;;;2.20;;
64487;SDS011;50864;45.050;39.014;2022-09-27T08:20:34;8.27;;;2.37;;
64487;SDS011;50864;45.050;39.014;2022-09-27T08:23:00;5.35;;;2.28;;
64487;SDS011;50864;45.050;39.014;2022-09-27T08:25:29;6.30;;;2.00;;
64487;SDS011;50864;45.050;39.014;2022-09-27T08:27:57;7.28;;;2.53;;
64487;SDS011;50864;45.050;39.014;2022-09-27T08:30:25;16.65;;;3.30;;
64487;SDS011;50864;45.050;39.014;2022-09-27T08:32:56;9.98;;;2.70;;
64487;SDS011;50864;45.050;39.014;2022-09-27T08:35:23;5.20;;;2.10;;
64487;SDS011;50864;45.050;39.014;2022-09-27T08:37:56;8.15;;;1.90;;
64487;SDS011;50864;45.050;39.014;2022-09-27T08:43:15;5.22;;;2.00;;
64487;SDS011;50864;45.050;39.014;2022-09-27T08:48:11;7.10;;;2.62;;
64487;SDS011;50864;45.050;39.014;2022-09-27T08:50:40;6.12;;;2.00;;
64487;SDS011;50864;45.050;39.014;2022-09-27T08:55:48;7.00;;;2.22;;
64487;SDS011;50864;45.050;39.014;2022-09-27T09:01:02;8.68;;;2.62;;
64487;SDS011;50864;45.050;39.014;2022-09-27T09:03:35;7.53;;;2.30;;
64487;SDS011;50864;45.050;39.014;2022-09-27T09:20:16;14.10;;;3.20;;
64487;SDS011;50864;45.050;39.014;2022-09-27T09:22:59;15.52;;;3.62;;
64487;SDS011;50864;45.050;39.014;2022-09-27T15:22:49;15.27;;;3.50;;
64487;SDS011;50864;45.050;39.014;2022-09-27T15:27:45;16.80;;;5.20;;
64487;SDS011;50864;45.050;39.014;2022-09-27T15:30:23;18.73;;;5.43;;
64487;SDS011;50864;45.050;39.014;2022-09-27T15:32:52;12.77;;;4.90;;
64487;SDS011;50864;45.050;39.014;2022-09-27T15:35:24;16.55;;;5.85;;
64487;SDS011;50864;45.050;39.014;2022-09-27T15:37:51;15.52;;;9.55;;
64487;SDS011;50864;45.050;39.014;2022-09-27T15:43:22;19.58;;;8.00;;
64487;SDS011;50864;45.050;39.014;2022-09-27T15:45:58;19.65;;;9.27;;
64487;SDS011;50864;45.050;39.014;2022-09-27T15:48:28;26.33;;;10.02;;
64487;SDS011;50864;45.050;39.014;2022-09-27T15:50:56;25.35;;;8.90;;
64487;SDS011;50864;45.050;39.014;2022-09-27T15:55:58;14.02;;;6.93;;
64487;SDS011;50864;45.050;39.014;2022-09-27T15:58:25;13.00;;;5.80;;
64487;SDS011;50864;45.050;39.014;2022-09-27T16:00:58;14.07;;;5.37;;
64487;SDS011;50864;45.050;39.014;2022-09-27T16:03:30;16.27;;;6.03;;
64487;SDS011;50864;45.050;39.014;2022-09-27T16:05:57;21.02;;;5.80;;
64487;SDS011;50864;45.050;39.014;2022-09-27T16:08:24;14.10;;;5.75;;
64487;SDS011;50864;45.050;39.014;2022-09-27T16:10:52;21.52;;;7.62;;
64487;SDS011;50864;45.050;39.014;2022-09-27T16:13:20;18.70;;;8.07;;
64487;SDS011;50864;45.050;39.014;2022-09-27T16:15:47;13.70;;;5.93;;
64487;SDS011;50864;45.050;39.014;2022-09-27T16:18:13;19.45;;;5.72;;
64487;SDS011;50864;45.050;39.014;2022-09-27T16:20:39;12.63;;;5.25;;
64487;SDS011;50864;45.050;39.014;2022-09-27T16:23:05;17.40;;;5.25;;
64487;SDS011;50864;45.050;39.014;2022-09-27T16:25:32;14.40;;;5.47;;
64487;SDS011;50864;45.050;39.014;2022-09-27T16:27:58;13.10;;;6.30;;
64487;SDS011;50864;45.050;39.014;2022-09-27T16:30:26;14.70;;;5.22;;
64487;SDS011;50864;45.050;39.014;2022-09-27T16:32:53;14.60;;;5.78;;
64487;SDS011;50864;45.050;39.014;2022-09-27T16:35:19;14.35;;;5.60;;
64487;SDS011;50864;45.050;39.014;2022-09-27T16:37:46;18.83;;;6.22;;
64487;SDS011;50864;45.050;39.014;2022-09-27T16:40:13;17.05;;;6.22;;
64487;SDS011;50864;45.050;39.014;2022-09-27T16:42:42;15.57;;;5.90;;
64487;SDS011;50864;45.050;39.014;2022-09-27T16:45:08;22.62;;;7.53;;
64487;SDS011;50864;45.050;39.014;2022-09-27T16:47:35;15.90;;;6.45;;
64487;SDS011;50864;45.050;39.014;2022-09-27T16:50:02;20.92;;;7.00;;
64487;SDS011;50864;45.050;39.014;2022-09-27T16:52:48;20.83;;;6.90;;
64487;SDS011;50864;45.050;39.014;2022-09-27T16:55:16;16.98;;;7.60;;
64487;SDS011;50864;45.050;39.014;2022-09-27T16:57:43;22.17;;;7.30;;
64487;SDS011;50864;45.050;39.014;2022-09-27T17:00:10;20.85;;;7.50;;
64487;SDS011;50864;45.050;39.014;2022-09-27T17:02:37;27.48;;;7.95;;
64487;SDS011;50864;45.050;39.014;2022-09-27T17:05:03;18.85;;;6.87;;
64487;SDS011;50864;45.050;39.014;2022-09-27T17:07:29;25.60;;;8.50;;
64487;SDS011;50864;45.050;39.014;2022-09-27T17:09:56;18.08;;;7.00;;
64487;SDS011;50864;45.050;39.014;2022-09-27T17:12:22;19.80;;;7.22;;
64487;SDS011;50864;45.050;39.014;2022-09-27T17:14:49;16.87;;;7.07;;
64487;SDS011;50864;45.050;39.014;2022-09-27T17:17:15;27.45;;;7.93;;
64487;SDS011;50864;45.050;39.014;2022-09-27T17:19:41;19.40;;;8.70;;
64487;SDS011;50864;45.050;39.014;2022-09-27T17:22:08;24.12;;;7.70;;
64487;SDS011;50864;45.050;39.014;2022-09-27T17:24:34;21.90;;;7.72;;
64487;SDS011;50864;45.050;39.014;2022-09-27T17:27:00;21.45;;;7.65;;
64487;SDS011;50864;45.050;39.014;2022-09-27T17:29:28;18.33;;;8.30;;
64487;SDS011;50864;45.050;39.014;2022-09-27T17:31:55;21.98;;;7.93;;
64487;SDS011;50864;45.050;39.014;2022-09-27T17:34:21;23.77;;;7.53;;
64487;SDS011;50864;45.050;39.014;2022-09-27T17:36:47;26.25;;;7.60;;
64487;SDS011;50864;45.050;39.014;2022-09-27T17:39:15;24.08;;;8.48;;
64487;SDS011;50864;45.050;39.014;2022-09-27T17:41:42;18.25;;;7.15;;
64487;SDS011;50864;45.050;39.014;2022-09-27T17:44:10;20.05;;;7.72;;
64487;SDS011;50864;45.050;39.014;2022-09-27T17:46:38;17.55;;;7.40;;
64487;SDS011;50864;45.050;39.014;2022-09-27T17:49:04;18.45;;;6.97;;
64487;SDS011;50864;45.050;39.014;2022-09-27T17:51:51;17.23;;;6.85;;
64487;SDS011;50864;45.050;39.014;2022-09-27T17:54:19;20.35;;;6.53;;
64487;SDS011;50864;45.050;39.014;2022-09-27T17:56:48;17.80;;;6.40;;
64487;SDS011;50864;45.050;39.014;2022-09-27T17:59:16;15.52;;;6.37;;
64487;SDS011;50864;45.050;39.014;2022-09-27T18:01:43;14.95;;;5.95;;
64487;SDS011;50864;45.050;39.014;2022-09-27T18:04:11;14.13;;;6.72;;
64487;SDS011;50864;45.050;39.014;2022-09-27T18:06:40;17.65;;;7.28;;
64487;SDS011;50864;45.050;39.014;2022-09-27T18:09:09;20.15;;;8.65;;
64487;SDS011;50864;45.050;39.014;2022-09-27T18:11:37;21.55;;;8.00;;
64487;SDS011;50864;45.050;39.014;2022-09-27T18:14:04;23.67;;;8.25;;
64487;SDS011;50864;45.050;39.014;2022-09-27T18:16:32;20.20;;;6.65;;
64487;SDS011;50864;45.050;39.014;2022-09-27T18:19:04;17.40;;;7.45;;
64487;SDS011;50864;45.050;39.014;2022-09-27T18:21:32;16.73;;;6.53;;
64487;SDS011;50864;45.050;39.014;2022-09-27T18:23:58;17.05;;;6.60;;
64487;SDS011;50864;45.050;39.014;2022-09-27T18:26:27;18.10;;;7.00;;
64487;SDS011;50864;45.050;39.014;2022-09-27T18:28:54;15.90;;;7.07;;
64487;SDS011;50864;45.050;39.014;2022-09-27T18:31:25;17.83;;;7.03;;
64487;SDS011;50864;45.050;39.014;2022-09-27T18:33:53;17.90;;;6.62;;
64487;SDS011;50864;45.050;39.014;2022-09-27T18:36:20;21.05;;;7.28;;
64487;SDS011;50864;45.050;39.014;2022-09-27T18:38:54;21.45;;;8.30;;
64487;SDS011;50864;45.050;39.014;2022-09-27T18:41:23;20.52;;;9.07;;
64487;SDS011;50864;45.050;39.014;2022-09-27T18:43:54;15.18;;;7.57;;
64487;SDS011;50864;45.050;39.014;2022-09-27T18:46:26;19.67;;;7.78;;
64487;SDS011;50864;45.050;39.014;2022-09-27T18:48:53;11.43;;;5.47;;
64487;SDS011;50864;45.050;39.014;2022-09-27T18:51:20;15.75;;;5.05;;
64487;SDS011;50864;45.050;39.014;2022-09-27T18:54:01;18.00;;;6.25;;
64487;SDS011;50864;45.050;39.014;2022-09-27T18:56:29;13.55;;;6.37;;
64487;SDS011;50864;45.050;39.014;2022-09-27T18:58:56;17.90;;;7.40;;
64487;SDS011;50864;45.050;39.014;2022-09-27T19:01:23;12.68;;;5.95;;
64487;SDS011;50864;45.050;39.014;2022-09-27T19:03:52;11.88;;;6.30;;
64487;SDS011;50864;45.050;39.014;2022-09-27T19:06:20;14.25;;;7.10;;
64487;SDS011;50864;45.050;39.014;2022-09-27T19:08:51;18.02;;;8.52;;
64487;SDS011;50864;45.050;39.014;2022-09-27T19:11:20;10.18;;;4.90;;
64487;SDS011;50864;45.050;39.014;2022-09-27T19:13:49;11.63;;;6.35;;
64487;SDS011;50864;45.050;39.014;2022-09-27T19:16:16;15.98;;;7.00;;
64487;SDS011;50864;45.050;39.014;2022-09-27T19:18:45;14.10;;;7.78;;
64487;SDS011;50864;45.050;39.014;2022-09-27T19:21:12;15.70;;;7.50;;
64487;SDS011;50864;45.050;39.014;2022-09-27T19:23:40;14.63;;;6.95;;
64487;SDS011;50864;45.050;39.014;2022-09-27T19:26:08;13.48;;;5.47;;
64487;SDS011;50864;45.050;39.014;2022-09-27T19:28:39;11.55;;;5.57;;
64487;SDS011;50864;45.050;39.014;2022-09-27T19:31:06;13.00;;;5.75;;
64487;SDS011;50864;45.050;39.014;2022-09-27T19:33:34;16.45;;;6.12;;
64487;SDS011;50864;45.050;39.014;2022-09-27T19:36:02;10.48;;;5.30;;
64487;SDS011;50864;45.050;39.014;2022-09-27T19:38:30;12.00;;;5.10;;
64487;SDS011;50864;45.050;39.014;2022-09-27T19:40:57;12.85;;;3.80;;
64487;SDS011;50864;45.050;39.014;2022-09-27T19:43:23;9.23;;;3.58;;
64487;SDS011;50864;45.050;39.014;2022-09-27T19:45:49;9.07;;;3.62;;
64487;SDS011;50864;45.050;39.014;2022-09-27T19:48:15;8.05;;;3.35;;
64487;SDS011;50864;45.050;39.014;2022-09-27T19:50:41;13.32;;;4.03;;
64487;SDS011;50864;45.050;39.014;2022-09-27T19:53:07;9.20;;;3.15;;
64487;SDS011;50864;45.050;39.014;2022-09-27T19:55:34;7.85;;;3.55;;
64487;SDS011;50864;45.050;39.014;2022-09-27T19:58:00;10.45;;;3.50;;
64487;SDS011;50864;45.050;39.014;2022-09-27T20:00:26;8.88;;;3.72;;
64487;SDS011;50864;45.050;39.014;2022-09-27T20:02:52;9.52;;;3.87;;
64487;SDS011;50864;45.050;39.014;2022-09-27T20:05:18;17.42;;;4.75;;
64487;SDS011;50864;45.050;39.014;2022-09-27T20:07:44;7.25;;;3.62;;
64487;SDS011;50864;45.050;39.014;2022-09-27T20:10:10;10.10;;;3.45;;
64487;SDS011;50864;45.050;39.014;2022-09-27T20:12:36;14.43;;;6.47;;
64487;SDS011;50864;45.050;39.014;2022-09-27T20:15:02;10.45;;;4.65;;
64487;SDS011;50864;45.050;39.014;2022-09-27T20:17:32;10.38;;;4.20;;
64487;SDS011;50864;45.050;39.014;2022-09-27T20:19:58;10.05;;;4.72;;
64487;SDS011;50864;45.050;39.014;2022-09-27T20:22:24;9.93;;;4.32;;
64487;SDS011;50864;45.050;39.014;2022-09-27T20:24:50;13.02;;;4.47;;
64487;SDS011;50864;45.050;39.014;2022-09-27T20:27:16;12.05;;;4.80;;
64487;SDS011;50864;45.050;39.014;2022-09-27T20:29:44;11.55;;;4.35;;
64487;SDS011;50864;45.050;39.014;2022-09-27T20:32:12;10.38;;;4.07;;
64487;SDS011;50864;45.050;39.014;2022-09-27T20:34:38;7.20;;;3.78;;
64487;SDS011;50864;45.050;39.014;2022-09-27T20:37:04;9.35;;;3.75;;
64487;SDS011;50864;45.050;39.014;2022-09-27T20:39:33;12.48;;;4.55;;
64487;SDS011;50864;45.050;39.014;2022-09-27T20:41:58;11.88;;;4.62;;
64487;SDS011;50864;45.050;39.014;2022-09-27T20:44:24;9.18;;;4.25;;
64487;SDS011;50864;45.050;39.014;2022-09-27T20:46:51;11.05;;;4.40;;
64487;SDS011;50864;45.050;39.014;2022-09-27T20:49:17;8.98;;;3.95;;
64487;SDS011;50864;45.050;39.014;2022-09-27T20:51:44;13.05;;;3.78;;
64487;SDS011;50864;45.050;39.014;2022-09-27T20:54:15;9.13;;;3.80;;
64487;SDS011;50864;45.050;39.014;2022-09-27T20:56:43;9.52;;;3.83;;
64487;SDS011;50864;45.050;39.014;2022-09-27T21:01:47;11.35;;;5.43;;
64487;SDS011;50864;45.050;39.014;2022-09-27T21:04:14;17.85;;;7.55;;
64487;SDS011;50864;45.050;39.014;2022-09-27T21:06:43;10.35;;;5.12;;
64487;SDS011;50864;45.050;39.014;2022-09-27T21:09:10;8.35;;;3.78;;
64487;SDS011;50864;45.050;39.014;2022-09-27T21:11:43;8.95;;;3.60;;
64487;SDS011;50864;45.050;39.014;2022-09-27T21:14:10;10.95;;;4.22;;
64487;SDS011;50864;45.050;39.014;2022-09-27T21:16:36;9.32;;;3.90;;
64487;SDS011;50864;45.050;39.014;2022-09-27T21:19:02;8.75;;;3.65;;
64487;SDS011;50864;45.050;39.014;2022-09-27T21:21:29;8.13;;;3.20;;
64487;SDS011;50864;45.050;39.014;2022-09-27T21:23:56;7.25;;;2.85;;
64487;SDS011;50864;45.050;39.014;2022-09-27T21:26:23;6.55;;;3.05;;
64487;SDS011;50864;45.050;39.014;2022-09-27T21:28:52;7.62;;;3.00;;
64487;SDS011;50864;45.050;39.014;2022-09-27T21:31:24;7.50;;;3.47;;
64487;SDS011;50864;45.050;39.014;2022-09-27T21:33:55;11.00;;;3.45;;
64487;SDS011;50864;45.050;39.014;2022-09-27T21:36:44;9.65;;;3.30;;
64487;SDS011;50864;45.050;39.014;2022-09-27T21:39:09;10.00;;;3.30;;
64487;SDS011;50864;45.050;39.014;2022-09-27T21:41:36;8.10;;;3.08;;
64487;SDS011;50864;45.050;39.014;2022-09-27T21:44:03;8.90;;;3.55;;
64487;SDS011;50864;45.050;39.014;2022-09-27T21:46:30;8.15;;;3.25;;
64487;SDS011;50864;45.050;39.014;2022-09-27T21:48:57;10.27;;;3.60;;
64487;SDS011;50864;45.050;39.014;2022-09-27T21:51:27;6.45;;;3.60;;
64487;SDS011;50864;45.050;39.014;2022-09-27T21:53:58;8.10;;;2.75;;
64487;SDS011;50864;45.050;39.014;2022-09-27T21:56:26;7.55;;;2.55;;
64487;SDS011;50864;45.050;39.014;2022-09-27T21:58:54;9.23;;;2.70;;
64487;SDS011;50864;45.050;39.014;2022-09-27T22:01:21;9.13;;;3.08;;